sensor_id;sensor_type;location;lat;lon;timestamp;pressure;altitude;pressure_sealevel;temperature;humidity
48015;BME280;33780;51.034;7.120;2023-10-09T00:00:50;101292.31;;;15.27;74.34
48015;BME280;33780;51.034;7.120;2023-10-09T00:03:17;101290.72;;;15.24;74.40
48015;BME280;33780;51.034;7.120;2023-10-09T00:05:43;101291.72;;;15.23;74.32
48015;BME280;33780;51.034;7.120;2023-10-09T00:08:15;101286.66;;;15.20;74.14
48015;BME280;33780;51.034;7.120;2023-10-09T00:10:57;101293.88;;;15.20;74.31
48015;BME280;33780;51.034;7.120;2023-10-09T00:13:25;101294.88;;;15.19;74.25
48015;BME280;33780;51.034;7.120;2023-10-09T00:16:05;101292.34;;;15.17;74.02
48015;BME280;33780;51.034;7.120;2023-10-09T00:18:39;101291.78;;;15.14;74.12
48015;BME280;33780;51.034;7.120;2023-10-09T00:21:06;101285.53;;;15.13;74.41
48015;BME280;33780;51.034;7.120;2023-10-09T00:23:38;101289.38;;;15.10;73.82
48015;BME280;33780;51.034;7.120;2023-10-09T00:26:05;101291.38;;;15.08;73.98
48015;BME280;33780;51.034;7.120;2023-10-09T00:28:38;101287.09;;;15.06;74.03
48015;BME280;33780;51.034;7.120;2023-10-09T00:31:08;101279.31;;;15.03;74.07
48015;BME280;33780;51.034;7.120;2023-10-09T00:33:40;101286.72;;;15.01;73.89
48015;BME280;33780;51.034;7.120;2023-10-09T00:36:05;101282.31;;;15.00;73.98
48015;BME280;33780;51.034;7.120;2023-10-09T00:38:43;101277.22;;;14.97;73.84
48015;BME280;33780;51.034;7.120;2023-10-09T00:41:15;101285.47;;;14.95;73.87
48015;BME280;33780;51.034;7.120;2023-10-09T00:43:51;101275.13;;;14.91;73.51
48015;BME280;33780;51.034;7.120;2023-10-09T00:46:18;101282.63;;;14.87;73.59
48015;BME280;33780;51.034;7.120;2023-10-09T00:48:49;101269.44;;;14.84;73.61
48015;BME280;33780;51.034;7.120;2023-10-09T00:51:18;101262.50;;;14.81;73.58
48015;BME280;33780;51.034;7.120;2023-10-09T00:53:53;101257.28;;;14.80;73.84
48015;BME280;33780;51.034;7.120;2023-10-09T00:56:21;101268.19;;;14.78;73.55
48015;BME280;33780;51.034;7.120;2023-10-09T00:58:53;101255.03;;;14.75;73.92
48015;BME280;33780;51.034;7.120;2023-10-09T01:01:26;101256.44;;;14.70;74.03
48015;BME280;33780;51.034;7.120;2023-10-09T01:04:00;101254.72;;;14.69;73.93
48015;BME280;33780;51.034;7.120;2023-10-09T01:06:28;101248.50;;;14.68;73.94
48015;BME280;33780;51.034;7.120;2023-10-09T01:08:58;101242.41;;;14.66;73.56
48015;BME280;33780;51.034;7.120;2023-10-09T01:11:46;101238.00;;;14.65;74.39
48015;BME280;33780;51.034;7.120;2023-10-09T01:14:24;101241.56;;;14.66;73.91
48015;BME280;33780;51.034;7.120;2023-10-09T01:16:49;101238.16;;;14.64;74.19
48015;BME280;33780;51.034;7.120;2023-10-09T01:19:18;101246.25;;;14.64;74.01
48015;BME280;33780;51.034;7.120;2023-10-09T01:21:51;101241.84;;;14.63;73.90
48015;BME280;33780;51.034;7.120;2023-10-09T01:24:17;101238.31;;;14.62;74.21
48015;BME280;33780;51.034;7.120;2023-10-09T01:26:44;101231.22;;;14.61;74.06
48015;BME280;33780;51.034;7.120;2023-10-09T01:29:21;101229.53;;;14.60;74.06
48015;BME280;33780;51.034;7.120;2023-10-09T01:31:53;101226.13;;;14.58;74.09
48015;BME280;33780;51.034;7.120;2023-10-09T01:34:25;101220.75;;;14.58;73.95
48015;BME280;33780;51.034;7.120;2023-10-09T01:36:59;101214.50;;;14.58;74.10
48015;BME280;33780;51.034;7.120;2023-10-09T01:39:25;101221.75;;;14.57;74.04
48015;BME280;33780;51.034;7.120;2023-10-09T01:41:56;101209.28;;;14.56;74.04
48015;BME280;33780;51.034;7.120;2023-10-09T01:44:26;101212.13;;;14.55;74.41
48015;BME280;33780;51.034;7.120;2023-10-09T01:46:53;101199.63;;;14.54;74.36
48015;BME280;33780;51.034;7.120;2023-10-09T01:49:21;101203.16;;;14.54;74.40
48015;BME280;33780;51.034;7.120;2023-10-09T01:51:55;101197.06;;;14.52;74.71
48015;BME280;33780;51.034;7.120;2023-10-09T01:54:20;101204.31;;;14.51;74.40
48015;BME280;33780;51.034;7.120;2023-10-09T01:57:05;101213.38;;;14.50;74.88
48015;BME280;33780;51.034;7.120;2023-10-09T01:59:37;101212.53;;;14.50;74.62
48015;BME280;33780;51.034;7.120;2023-10-09T02:02:06;101204.44;;;14.50;74.77
48015;BME280;33780;51.034;7.120;2023-10-09T02:04:50;101209.84;;;14.50;74.81
48015;BME280;33780;51.034;7.120;2023-10-09T02:07:15;101216.06;;;14.50;74.87
48015;BME280;33780;51.034;7.120;2023-10-09T02:09:47;101211.53;;;14.51;74.94
48015;BME280;33780;51.034;7.120;2023-10-09T02:12:12;101209.84;;;14.50;74.91
48015;BME280;33780;51.034;7.120;2023-10-09T02:14:38;101220.59;;;14.50;75.14
48015;BME280;33780;51.034;7.120;2023-10-09T02:17:07;101215.91;;;14.52;75.14
48015;BME280;33780;51.034;7.120;2023-10-09T02:19:37;101227.53;;;14.52;75.29
48015;BME280;33780;51.034;7.120;2023-10-09T02:22:05;101225.84;;;14.51;75.14
48015;BME280;33780;51.034;7.120;2023-10-09T02:24:42;101219.75;;;14.49;75.22
48015;BME280;33780;51.034;7.120;2023-10-09T02:27:14;101214.38;;;14.49;75.31
48015;BME280;33780;51.034;7.120;2023-10-09T02:29:45;101225.00;;;14.51;75.09
48015;BME280;33780;51.034;7.120;2023-10-09T02:32:13;101225.00;;;14.51;75.50
48015;BME280;33780;51.034;7.120;2023-10-09T02:34:39;101222.31;;;14.51;75.45
48015;BME280;33780;51.034;7.120;2023-10-09T02:37:04;101217.91;;;14.50;75.16
48015;BME280;33780;51.034;7.120;2023-10-09T02:39:31;101219.91;;;14.48;75.16
48015;BME280;33780;51.034;7.120;2023-10-09T02:42:05;101203.75;;;14.48;75.41
48015;BME280;33780;51.034;7.120;2023-10-09T02:44:48;101208.44;;;14.46;75.52
48015;BME280;33780;51.034;7.120;2023-10-09T02:47:20;101207.59;;;14.45;75.52
48015;BME280;33780;51.034;7.120;2023-10-09T02:49:49;101211.13;;;14.46;75.51
48015;BME280;33780;51.034;7.120;2023-10-09T02:52:16;101207.59;;;14.45;75.43
48015;BME280;33780;51.034;7.120;2023-10-09T02:54:49;101207.59;;;14.45;75.60
48015;BME280;33780;51.034;7.120;2023-10-09T02:57:22;101204.88;;;14.45;75.44
48015;BME280;33780;51.034;7.120;2023-10-09T02:59:49;101197.81;;;14.44;75.70
48015;BME280;33780;51.034;7.120;2023-10-09T03:02:17;101199.66;;;14.44;75.49
48015;BME280;33780;51.034;7.120;2023-10-09T03:04:43;101196.09;;;14.43;75.58
48015;BME280;33780;51.034;7.120;2023-10-09T03:07:08;101200.63;;;14.43;75.82
48015;BME280;33780;51.034;7.120;2023-10-09T03:09:35;101197.06;;;14.42;75.41
48015;BME280;33780;51.034;7.120;2023-10-09T03:12:02;101202.47;;;14.42;75.59
48015;BME280;33780;51.034;7.120;2023-10-09T03:14:28;101194.38;;;14.42;75.55
48015;BME280;33780;51.034;7.120;2023-10-09T03:16:55;101205.31;;;14.41;75.66
48015;BME280;33780;51.034;7.120;2023-10-09T03:19:21;101200.06;;;14.39;75.64
48015;BME280;33780;51.034;7.120;2023-10-09T03:21:47;101195.38;;;14.41;75.58
48015;BME280;33780;51.034;7.120;2023-10-09T03:24:12;101193.69;;;14.40;75.83
48015;BME280;33780;51.034;7.120;2023-10-09T03:26:38;101187.44;;;14.40;75.90
48015;BME280;33780;51.034;7.120;2023-10-09T03:29:03;101190.28;;;14.38;75.58
48015;BME280;33780;51.034;7.120;2023-10-09T03:31:38;101189.59;;;14.36;75.82
48015;BME280;33780;51.034;7.120;2023-10-09T03:34:04;101186.00;;;14.36;75.70
48015;BME280;33780;51.034;7.120;2023-10-09T03:36:30;101191.41;;;14.36;75.91
48015;BME280;33780;51.034;7.120;2023-10-09T03:38:59;101188.72;;;14.36;75.95
48015;BME280;33780;51.034;7.120;2023-10-09T03:41:25;101186.91;;;14.36;75.99
48015;BME280;33780;51.034;7.120;2023-10-09T03:43:52;101195.81;;;14.37;76.06
48015;BME280;33780;51.034;7.120;2023-10-09T03:46:17;101178.94;;;14.35;75.50
48015;BME280;33780;51.034;7.120;2023-10-09T03:48:58;101173.53;;;14.35;75.97
48015;BME280;33780;51.034;7.120;2023-10-09T03:51:27;101176.25;;;14.35;76.12
48015;BME280;33780;51.034;7.120;2023-10-09T03:53:52;101174.53;;;14.34;75.87
48015;BME280;33780;51.034;7.120;2023-10-09T03:56:18;101173.69;;;14.33;76.12
48015;BME280;33780;51.034;7.120;2023-10-09T03:58:50;101180.91;;;14.33;76.10
48015;BME280;33780;51.034;7.120;2023-10-09T04:01:21;101185.47;;;14.32;76.03
48015;BME280;33780;51.034;7.120;2023-10-09T04:03:52;101181.22;;;14.30;76.30
48015;BME280;33780;51.034;7.120;2023-10-09T04:06:24;101174.00;;;14.30;76.32
48015;BME280;33780;51.034;7.120;2023-10-09T04:08:56;101173.13;;;14.30;76.14
48015;BME280;33780;51.034;7.120;2023-10-09T04:11:23;101177.69;;;14.29;76.15
48015;BME280;33780;51.034;7.120;2023-10-09T04:13:50;101175.84;;;14.30;76.03
48015;BME280;33780;51.034;7.120;2023-10-09T04:16:17;101174.84;;;14.31;76.33
48015;BME280;33780;51.034;7.120;2023-10-09T04:18:59;101171.44;;;14.29;76.08
48015;BME280;33780;51.034;7.120;2023-10-09T04:21:30;101162.38;;;14.30;76.51
48015;BME280;33780;51.034;7.120;2023-10-09T04:24:00;101157.13;;;14.28;76.42
48015;BME280;33780;51.034;7.120;2023-10-09T04:26:44;101153.59;;;14.28;76.42
48015;BME280;33780;51.034;7.120;2023-10-09T04:29:11;101158.97;;;14.28;76.87
48015;BME280;33780;51.034;7.120;2023-10-09T04:31:46;101162.50;;;14.28;76.70
48015;BME280;33780;51.034;7.120;2023-10-09T04:34:17;101159.81;;;14.28;76.49
48015;BME280;33780;51.034;7.120;2023-10-09T04:37:00;101167.75;;;14.30;76.55
48015;BME280;33780;51.034;7.120;2023-10-09T04:39:27;101158.97;;;14.28;76.57
48015;BME280;33780;51.034;7.120;2023-10-09T04:41:56;101165.22;;;14.28;76.61
48015;BME280;33780;51.034;7.120;2023-10-09T04:44:41;101162.66;;;14.27;76.75
48015;BME280;33780;51.034;7.120;2023-10-09T04:47:28;101163.66;;;14.26;76.51
48015;BME280;33780;51.034;7.120;2023-10-09T04:53:01;101168.19;;;14.25;76.43
48015;BME280;33780;51.034;7.120;2023-10-09T04:55:41;101166.34;;;14.26;76.84
48015;BME280;33780;51.034;7.120;2023-10-09T04:58:20;101161.97;;;14.25;76.82
48015;BME280;33780;51.034;7.120;2023-10-09T05:00:53;101153.88;;;14.25;77.03
48015;BME280;33780;51.034;7.120;2023-10-09T05:03:25;101156.59;;;14.25;76.79
48015;BME280;33780;51.034;7.120;2023-10-09T05:05:53;101148.50;;;14.25;76.78
48015;BME280;33780;51.034;7.120;2023-10-09T05:08:26;101154.72;;;14.25;76.97
48015;BME280;33780;51.034;7.120;2023-10-09T05:10:56;101158.28;;;14.26;77.15
48015;BME280;33780;51.034;7.120;2023-10-09T05:18:54;101141.56;;;14.22;77.09
48015;BME280;33780;51.034;7.120;2023-10-09T05:21:27;101136.34;;;14.20;77.02
48015;BME280;33780;51.034;7.120;2023-10-09T05:23:57;101144.56;;;14.19;76.82
48015;BME280;33780;51.034;7.120;2023-10-09T05:26:48;101149.94;;;14.19;77.07
48015;BME280;33780;51.034;7.120;2023-10-09T05:29:24;101147.25;;;14.19;77.36
48015;BME280;33780;51.034;7.120;2023-10-09T05:31:52;101147.25;;;14.19;77.22
48015;BME280;33780;51.034;7.120;2023-10-09T05:34:36;101144.66;;;14.17;77.24
48015;BME280;33780;51.034;7.120;2023-10-09T05:37:20;101148.34;;;14.16;77.21
48015;BME280;33780;51.034;7.120;2023-10-09T05:39:55;101152.91;;;14.16;77.00
48015;BME280;33780;51.034;7.120;2023-10-09T05:45:09;101143.13;;;14.15;77.25
48015;BME280;33780;51.034;7.120;2023-10-09T05:47:34;101147.50;;;14.16;77.23
48015;BME280;33780;51.034;7.120;2023-10-09T05:49:59;101154.75;;;14.15;77.40
48015;BME280;33780;51.034;7.120;2023-10-09T05:52:48;101152.03;;;14.15;77.22
48015;BME280;33780;51.034;7.120;2023-10-09T05:55:16;101160.13;;;14.15;77.60
48015;BME280;33780;51.034;7.120;2023-10-09T05:57:45;101165.50;;;14.15;77.18
48015;BME280;33780;51.034;7.120;2023-10-09T06:00:29;101174.56;;;14.14;77.16
48015;BME280;33780;51.034;7.120;2023-10-09T06:03:13;101180.81;;;14.15;77.37
48015;BME280;33780;51.034;7.120;2023-10-09T06:05:48;101170.19;;;14.13;77.47
48015;BME280;33780;51.034;7.120;2023-10-09T06:08:25;101173.72;;;14.14;77.55
48015;BME280;33780;51.034;7.120;2023-10-09T06:10:52;101175.56;;;14.13;77.56
48015;BME280;33780;51.034;7.120;2023-10-09T06:13:36;101180.94;;;14.13;77.51
48015;BME280;33780;51.034;7.120;2023-10-09T06:16:12;101177.28;;;14.14;77.84
48015;BME280;33780;51.034;7.120;2023-10-09T06:18:56;101168.34;;;14.14;77.63
48015;BME280;33780;51.034;7.120;2023-10-09T06:21:40;101180.81;;;14.15;77.54
48015;BME280;33780;51.034;7.120;2023-10-09T06:24:26;101180.66;;;14.16;77.67
48015;BME280;33780;51.034;7.120;2023-10-09T06:26:58;101178.13;;;14.15;77.73
48015;BME280;33780;51.034;7.120;2023-10-09T06:29:27;101172.59;;;14.16;77.74
48015;BME280;33780;51.034;7.120;2023-10-09T06:32:03;101174.28;;;14.17;77.88
48015;BME280;33780;51.034;7.120;2023-10-09T06:34:51;101196.66;;;14.18;78.21
48015;BME280;33780;51.034;7.120;2023-10-09T06:37:18;101201.09;;;14.19;78.25
48015;BME280;33780;51.034;7.120;2023-10-09T06:39:54;101205.34;;;14.21;78.33
48015;BME280;33780;51.034;7.120;2023-10-09T06:42:22;101215.09;;;14.23;78.21
48015;BME280;33780;51.034;7.120;2023-10-09T06:45:10;101213.25;;;14.23;78.59
48015;BME280;33780;51.034;7.120;2023-10-09T06:47:35;101228.28;;;14.26;78.11
48015;BME280;33780;51.034;7.120;2023-10-09T06:50:07;101226.13;;;14.29;78.53
48015;BME280;33780;51.034;7.120;2023-10-09T06:52:45;101228.53;;;14.32;78.50
48015;BME280;33780;51.034;7.120;2023-10-09T06:55:26;101227.13;;;14.38;79.01
48015;BME280;33780;51.034;7.120;2023-10-09T06:58:01;101230.38;;;14.41;79.21
48015;BME280;33780;51.034;7.120;2023-10-09T07:00:29;101233.66;;;14.45;79.15
48015;BME280;33780;51.034;7.120;2023-10-09T07:03:27;101247.13;;;14.45;79.57
48015;BME280;33780;51.034;7.120;2023-10-09T07:06:10;101247.84;;;14.47;79.72
48015;BME280;33780;51.034;7.120;2023-10-09T07:09:11;101248.38;;;14.50;79.54
48015;BME280;33780;51.034;7.120;2023-10-09T07:11:39;101242.72;;;14.54;79.51
48015;BME280;33780;51.034;7.120;2023-10-09T07:14:04;101241.44;;;14.58;79.63
48015;BME280;33780;51.034;7.120;2023-10-09T07:16:34;101240.16;;;14.62;79.51
48015;BME280;33780;51.034;7.120;2023-10-09T07:19:22;101240.00;;;14.63;79.55
48015;BME280;33780;51.034;7.120;2023-10-09T07:22:00;101236.03;;;14.67;80.14
48015;BME280;33780;51.034;7.120;2023-10-09T07:24:38;101248.19;;;14.71;79.60
48015;BME280;33780;51.034;7.120;2023-10-09T07:27:10;101242.53;;;14.74;79.72
48015;BME280;33780;51.034;7.120;2023-10-09T07:29:42;101239.56;;;14.77;79.57
48015;BME280;33780;51.034;7.120;2023-10-09T07:32:17;101247.19;;;14.82;79.86
48015;BME280;33780;51.034;7.120;2023-10-09T07:34:52;101252.13;;;14.87;79.57
48015;BME280;33780;51.034;7.120;2023-10-09T07:37:26;101252.72;;;14.90;79.79
48015;BME280;33780;51.034;7.120;2023-10-09T07:40:04;101236.25;;;14.93;79.67
48015;BME280;33780;51.034;7.120;2023-10-09T07:42:37;101241.88;;;15.00;79.69
48015;BME280;33780;51.034;7.120;2023-10-09T07:45:06;101231.66;;;15.03;79.73
48015;BME280;33780;51.034;7.120;2023-10-09T07:48:03;101239.16;;;15.09;79.90
48015;BME280;33780;51.034;7.120;2023-10-09T07:50:37;101233.31;;;15.14;80.08
48015;BME280;33780;51.034;7.120;2023-10-09T07:53:15;101249.03;;;15.19;80.30
48015;BME280;33780;51.034;7.120;2023-10-09T07:55:46;101249.59;;;15.22;80.42
48015;BME280;33780;51.034;7.120;2023-10-09T07:58:24;101254.56;;;15.27;80.52
48015;BME280;33780;51.034;7.120;2023-10-09T08:00:57;101265.75;;;15.32;80.59
48015;BME280;33780;51.034;7.120;2023-10-09T08:03:33;101250.25;;;15.34;80.62
48015;BME280;33780;51.034;7.120;2023-10-09T08:06:01;101257.03;;;15.38;80.63
48015;BME280;33780;51.034;7.120;2023-10-09T08:08:52;101256.59;;;15.42;80.84
48015;BME280;33780;51.034;7.120;2023-10-09T08:11:26;101266.25;;;15.45;81.05
48015;BME280;33780;51.034;7.120;2023-10-09T08:14:11;101254.31;;;15.48;80.93
48015;BME280;33780;51.034;7.120;2023-10-09T08:16:55;101254.00;;;15.51;81.04
48015;BME280;33780;51.034;7.120;2023-10-09T08:19:48;101237.34;;;15.55;80.92
48015;BME280;33780;51.034;7.120;2023-10-09T08:22:29;101232.38;;;15.60;81.03
48015;BME280;33780;51.034;7.120;2023-10-09T08:24:55;101240.88;;;15.65;81.26
48015;BME280;33780;51.034;7.120;2023-10-09T08:27:22;101220.69;;;15.69;81.29
48015;BME280;33780;51.034;7.120;2023-10-09T08:30:02;101233.03;;;15.72;81.24
48015;BME280;33780;51.034;7.120;2023-10-09T08:32:54;101238.13;;;15.75;81.47
48015;BME280;33780;51.034;7.120;2023-10-09T08:35:33;101233.41;;;15.77;81.14
48015;BME280;33780;51.034;7.120;2023-10-09T08:38:03;101224.88;;;15.82;81.60
48015;BME280;33780;51.034;7.120;2023-10-09T08:40:38;101218.31;;;15.84;81.56
48015;BME280;33780;51.034;7.120;2023-10-09T08:43:15;101213.13;;;15.91;81.72
48015;BME280;33780;51.034;7.120;2023-10-09T08:46:01;101200.88;;;15.96;81.69
48015;BME280;33780;51.034;7.120;2023-10-09T08:48:30;101248.00;;;16.02;84.25
48015;BME280;33780;51.034;7.120;2023-10-09T08:50:57;101292.59;;;16.06;84.32
48015;BME280;33780;51.034;7.120;2023-10-09T08:53:24;101277.78;;;16.10;84.13
48015;BME280;33780;51.034;7.120;2023-10-09T08:55:52;101292.53;;;16.16;84.46
48015;BME280;33780;51.034;7.120;2023-10-09T08:58:18;101297.31;;;16.22;83.93
48015;BME280;33780;51.034;7.120;2023-10-09T09:00:44;101305.63;;;16.28;83.89
48015;BME280;33780;51.034;7.120;2023-10-09T09:03:19;101290.53;;;16.36;83.81
48015;BME280;33780;51.034;7.120;2023-10-09T09:05:48;101275.53;;;16.41;83.84
48015;BME280;33780;51.034;7.120;2023-10-09T09:08:24;101284.88;;;16.47;83.87
48015;BME280;33780;51.034;7.120;2023-10-09T09:11:10;101251.84;;;16.53;83.54
48015;BME280;33780;51.034;7.120;2023-10-09T09:14:03;101205.25;;;16.59;83.61
48015;BME280;33780;51.034;7.120;2023-10-09T09:16:34;101199.19;;;16.65;83.67
48015;BME280;33780;51.034;7.120;2023-10-09T09:19:03;101197.59;;;16.72;83.95
48015;BME280;33780;51.034;7.120;2023-10-09T09:21:42;101190.53;;;16.79;83.58
48015;BME280;33780;51.034;7.120;2023-10-09T09:24:11;101181.78;;;16.85;83.81
48015;BME280;33780;51.034;7.120;2023-10-09T09:27:04;101171.19;;;16.92;83.60
48015;BME280;33780;51.034;7.120;2023-10-09T09:29:40;101189.63;;;16.97;83.51
48015;BME280;33780;51.034;7.120;2023-10-09T09:32:09;101180.00;;;17.02;83.49
48015;BME280;33780;51.034;7.120;2023-10-09T09:34:53;101166.69;;;17.09;83.09
48015;BME280;33780;51.034;7.120;2023-10-09T09:37:30;101158.94;;;17.14;83.15
48015;BME280;33780;51.034;7.120;2023-10-09T09:40:08;101164.84;;;17.17;83.23
48015;BME280;33780;51.034;7.120;2023-10-09T09:42:42;101163.34;;;17.23;83.04
48015;BME280;33780;51.034;7.120;2023-10-09T09:45:11;101147.31;;;17.30;83.26
48015;BME280;33780;51.034;7.120;2023-10-09T09:47:37;101153.25;;;17.33;83.05
48015;BME280;33780;51.034;7.120;2023-10-09T09:50:05;101156.97;;;17.40;82.70
48015;BME280;33780;51.034;7.120;2023-10-09T09:52:37;101163.25;;;17.49;82.58
48015;BME280;33780;51.034;7.120;2023-10-09T09:55:04;101165.97;;;17.57;82.48
48015;BME280;33780;51.034;7.120;2023-10-09T09:57:31;101162.28;;;17.66;82.21
48015;BME280;33780;51.034;7.120;2023-10-09T09:59:58;101173.16;;;17.74;82.09
48015;BME280;33780;51.034;7.120;2023-10-09T10:02:35;101165.03;;;17.83;81.99
48015;BME280;33780;51.034;7.120;2023-10-09T10:05:06;101167.91;;;17.89;81.75
48015;BME280;33780;51.034;7.120;2023-10-09T10:07:34;101173.53;;;17.96;81.44
48015;BME280;33780;51.034;7.120;2023-10-09T10:10:42;101167.09;;;18.05;81.43
48015;BME280;33780;51.034;7.120;2023-10-09T10:13:15;101168.44;;;18.09;81.05
48015;BME280;33780;51.034;7.120;2023-10-09T10:18:32;101173.69;;;18.19;80.59
48015;BME280;33780;51.034;7.120;2023-10-09T10:21:14;101168.78;;;18.22;80.08
48015;BME280;33780;51.034;7.120;2023-10-09T10:24:00;101164.69;;;18.26;80.09
48015;BME280;33780;51.034;7.120;2023-10-09T10:26:31;101184.00;;;18.31;79.56
48015;BME280;33780;51.034;7.120;2023-10-09T10:29:18;101165.03;;;18.39;79.39
48015;BME280;33780;51.034;7.120;2023-10-09T10:31:55;101158.06;;;18.45;78.99
48015;BME280;33780;51.034;7.120;2023-10-09T10:34:21;101162.81;;;18.51;78.98
48015;BME280;33780;51.034;7.120;2023-10-09T10:36:50;101162.97;;;18.58;78.73
48015;BME280;33780;51.034;7.120;2023-10-09T10:39:18;101158.03;;;18.61;78.23
48015;BME280;33780;51.034;7.120;2023-10-09T10:41:58;101152.94;;;18.66;77.88
48015;BME280;33780;51.034;7.120;2023-10-09T10:44:31;101163.31;;;18.71;77.35
48015;BME280;33780;51.034;7.120;2023-10-09T10:47:03;101161.94;;;18.75;76.92
48015;BME280;33780;51.034;7.120;2023-10-09T10:49:29;101164.94;;;18.80;76.86
48015;BME280;33780;51.034;7.120;2023-10-09T10:52:05;101167.13;;;18.85;76.52
48015;BME280;33780;51.034;7.120;2023-10-09T10:54:42;101170.38;;;18.88;76.07
48015;BME280;33780;51.034;7.120;2023-10-09T10:57:35;101173.41;;;18.93;75.96
48015;BME280;33780;51.034;7.120;2023-10-09T11:00:18;101173.88;;;18.97;75.79
48015;BME280;33780;51.034;7.120;2023-10-09T11:03:02;101175.22;;;19.01;75.68
48015;BME280;33780;51.034;7.120;2023-10-09T11:05:43;101184.72;;;19.05;75.41
48015;BME280;33780;51.034;7.120;2023-10-09T11:08:15;101181.66;;;19.08;74.31
48015;BME280;33780;51.034;7.120;2023-10-09T11:10:40;101187.56;;;19.12;75.12
48015;BME280;33780;51.034;7.120;2023-10-09T11:13:24;101186.19;;;19.16;75.43
48015;BME280;33780;51.034;7.120;2023-10-09T11:15:58;101185.66;;;19.20;75.34
48015;BME280;33780;51.034;7.120;2023-10-09T11:18:49;101184.28;;;19.24;74.96
48015;BME280;33780;51.034;7.120;2023-10-09T11:21:15;101185.63;;;19.28;74.24
48015;BME280;33780;51.034;7.120;2023-10-09T11:23:41;101181.34;;;19.34;74.11
48015;BME280;33780;51.034;7.120;2023-10-09T11:26:16;101173.69;;;19.38;74.14
48015;BME280;33780;51.034;7.120;2023-10-09T11:29:13;101175.72;;;19.44;73.71
48015;BME280;33780;51.034;7.120;2023-10-09T11:32:02;101164.66;;;19.45;72.46
48015;BME280;33780;51.034;7.120;2023-10-09T11:34:30;101166.84;;;19.50;72.39
48015;BME280;33780;51.034;7.120;2023-10-09T11:37:11;101172.75;;;19.53;72.39
48015;BME280;33780;51.034;7.120;2023-10-09T11:39:38;101171.56;;;19.56;72.91
48015;BME280;33780;51.034;7.120;2023-10-09T11:42:18;101161.22;;;19.59;71.36
48015;BME280;33780;51.034;7.120;2023-10-09T11:45:01;101165.81;;;19.59;68.46
48015;BME280;33780;51.034;7.120;2023-10-09T11:47:34;101169.50;;;19.66;70.10
48015;BME280;33780;51.034;7.120;2023-10-09T11:50:00;101170.34;;;19.67;69.80
48015;BME280;33780;51.034;7.120;2023-10-09T11:52:27;101175.22;;;19.71;70.56
48015;BME280;33780;51.034;7.120;2023-10-09T11:55:05;101171.13;;;19.75;70.24
48015;BME280;33780;51.034;7.120;2023-10-09T11:57:32;101164.00;;;19.74;67.97
48015;BME280;33780;51.034;7.120;2023-10-09T11:59:59;101177.91;;;19.79;69.30
48015;BME280;33780;51.034;7.120;2023-10-09T12:02:25;101175.84;;;19.81;69.72
48015;BME280;33780;51.034;7.120;2023-10-09T12:04:51;101169.19;;;19.84;69.75
48015;BME280;33780;51.034;7.120;2023-10-09T12:07:16;101162.72;;;19.85;69.54
48015;BME280;33780;51.034;7.120;2023-10-09T12:09:45;101161.72;;;19.86;69.33
48015;BME280;33780;51.034;7.120;2023-10-09T12:12:10;101169.66;;;19.87;68.02
48015;BME280;33780;51.034;7.120;2023-10-09T12:14:36;101167.78;;;19.88;67.89
48015;BME280;33780;51.034;7.120;2023-10-09T12:17:05;101169.66;;;19.87;67.48
48015;BME280;33780;51.034;7.120;2023-10-09T12:19:35;101170.16;;;19.91;68.22
48015;BME280;33780;51.034;7.120;2023-10-09T12:22:02;101168.13;;;19.93;68.16
48015;BME280;33780;51.034;7.120;2023-10-09T12:24:30;101165.22;;;19.95;68.24
48015;BME280;33780;51.034;7.120;2023-10-09T12:26:56;101164.84;;;19.98;68.63
48015;BME280;33780;51.034;7.120;2023-10-09T12:29:22;101165.31;;;20.01;68.84
48015;BME280;33780;51.034;7.120;2023-10-09T12:31:48;101179.38;;;20.05;68.81
48015;BME280;33780;51.034;7.120;2023-10-09T12:34:16;101172.91;;;20.06;67.54
48015;BME280;33780;51.034;7.120;2023-10-09T12:36:45;101169.34;;;20.05;65.69
48015;BME280;33780;51.034;7.120;2023-10-09T12:39:10;101172.25;;;20.04;66.35
48015;BME280;33780;51.034;7.120;2023-10-09T12:41:45;101164.09;;;20.04;66.72
48015;BME280;33780;51.034;7.120;2023-10-09T12:44:11;101167.84;;;20.03;66.98
48015;BME280;33780;51.034;7.120;2023-10-09T12:46:40;101148.00;;;20.02;67.43
48015;BME280;33780;51.034;7.120;2023-10-09T12:49:07;101149.69;;;20.03;67.72
48015;BME280;33780;51.034;7.120;2023-10-09T12:51:32;101142.38;;;20.04;67.91
48015;BME280;33780;51.034;7.120;2023-10-09T12:53:58;101136.75;;;20.05;68.08
48015;BME280;33780;51.034;7.120;2023-10-09T12:56:29;101132.34;;;20.04;68.02
48015;BME280;33780;51.034;7.120;2023-10-09T12:59:00;101136.94;;;20.04;67.74
48015;BME280;33780;51.034;7.120;2023-10-09T13:01:27;101139.66;;;20.04;68.18
48015;BME280;33780;51.034;7.120;2023-10-09T13:04:00;101135.91;;;20.05;68.00
48015;BME280;33780;51.034;7.120;2023-10-09T13:06:26;101145.94;;;20.04;68.47
48015;BME280;33780;51.034;7.120;2023-10-09T13:08:53;101154.94;;;20.05;68.18
48015;BME280;33780;51.034;7.120;2023-10-09T13:11:18;101144.91;;;20.05;68.04
48015;BME280;33780;51.034;7.120;2023-10-09T13:13:45;101150.34;;;20.05;68.45
48015;BME280;33780;51.034;7.120;2023-10-09T13:16:20;101155.97;;;20.04;68.11
48015;BME280;33780;51.034;7.120;2023-10-09T13:18:55;101158.69;;;20.04;67.57
48015;BME280;33780;51.034;7.120;2023-10-09T13:21:26;101155.97;;;20.04;67.77
48015;BME280;33780;51.034;7.120;2023-10-09T13:23:57;101160.19;;;20.06;68.09
48015;BME280;33780;51.034;7.120;2023-10-09T13:26:22;101156.63;;;20.06;68.10
48015;BME280;33780;51.034;7.120;2023-10-09T13:29:00;101157.47;;;20.06;68.24
48015;BME280;33780;51.034;7.120;2023-10-09T13:31:26;101162.72;;;20.08;68.41
48015;BME280;33780;51.034;7.120;2023-10-09T13:33:55;101162.72;;;20.08;68.43